Time;durP1;ratioP1;P1;durP2;ratioP2;P2;SDS_P1;SDS_P2;PMS_P1;PMS_P2;Temp;Humidity;BMP_temperature;BMP_pressure;BME280_temperature;BME280_humidity;BME280_pressure;Samples;Min_cycle;Max_cycle;Signal;HPM_P1;HPM_P2
2022/01/06 00:01:00;;;;;;;85.03;4.33;;;;;;;4.74;100.00;97404.69;5071840;28;21248;-64
2022/01/06 00:03:28;;;;;;;73.23;4.23;;;;;;;4.63;100.00;97408.22;5071527;28;20622;-65
2022/01/06 00:05:55;;;;;;;67.53;4.27;;;;;;;4.78;100.00;97403.19;5068702;28;20618;-64
2022/01/06 00:08:22;;;;;;;60.87;4.10;;;;;;;4.70;100.00;97417.63;5075926;28;20624;-66
2022/01/06 00:10:49;;;;;;;121.03;6.80;;;;;;;4.58;100.00;97411.53;5072632;28;20613;-64
2022/01/06 00:13:22;;;;;;;71.53;4.00;;;;;;;4.56;100.00;97410.19;5062525;28;20598;-64
2022/01/06 00:16:06;;;;;;;85.77;4.63;;;;;;;4.74;100.00;97404.69;5078309;28;20719;-64
2022/01/06 00:23:03;;;;;;;48.47;3.17;;;;;;;4.88;100.00;97406.00;5070895;28;20656;-64
2022/01/06 00:24:08;;;;;;;61.70;3.57;;;;;;;4.85;100.00;97406.50;5066092;28;20610;-67
2022/01/06 00:26:35;;;;;;;72.77;4.37;;;;;;;5.06;100.00;97413.72;5070513;28;20603;-69
2022/01/06 00:29:03;;;;;;;46.30;2.50;;;;;;;5.32;100.00;97399.84;5076113;28;20602;-65
2022/01/06 00:31:30;;;;;;;90.57;5.27;;;;;;;5.04;100.00;97401.78;5077815;28;20621;-67
2022/01/06 00:33:57;;;;;;;82.57;5.60;;;;;;;5.12;100.00;97409.31;5077091;28;20595;-64
2022/01/06 00:36:23;;;;;;;38.30;2.67;;;;;;;5.03;100.00;97408.91;5077709;28;20615;-63
2022/01/06 00:38:50;;;;;;;35.90;2.17;;;;;;;5.14;100.00;97417.81;5070858;28;20654;-65
2022/01/06 00:41:17;;;;;;;66.73;5.37;;;;;;;5.16;100.00;97413.09;5077509;28;20665;-65
2022/01/06 00:43:44;;;;;;;51.40;3.47;;;;;;;5.22;100.00;97409.47;5068855;28;20615;-66
2022/01/06 00:46:12;;;;;;;53.63;4.00;;;;;;;5.30;100.00;97417.81;5063425;28;20648;-66
2022/01/06 00:48:38;;;;;;;82.30;5.00;;;;;;;5.35;100.00;97412.59;5074656;28;20614;-65
2022/01/06 00:51:06;;;;;;;56.50;3.27;;;;;;;5.28;100.00;97416.47;5068162;28;20692;-65
2022/01/06 00:53:32;;;;;;;64.17;4.20;;;;;;;5.34;100.00;97416.31;5070377;28;20637;-65
2022/01/06 00:55:59;;;;;;;62.67;4.03;;;;;;;5.29;100.00;97431.31;5069836;28;20607;-65
2022/01/06 00:58:26;;;;;;;66.73;4.10;;;;;;;5.31;100.00;97432.66;5078337;28;20656;-65
2022/01/06 01:00:52;;;;;;;60.23;3.70;;;;;;;5.20;100.00;97422.94;5080348;28;20605;-65
2022/01/06 01:03:21;;;;;;;82.73;4.83;;;;;;;5.35;100.00;97428.47;5079021;28;20613;-66
2022/01/06 01:05:50;;;;;;;83.17;4.83;;;;;;;5.30;100.00;97417.81;5073201;28;20618;-66
2022/01/06 01:08:18;;;;;;;55.83;4.17;;;;;;;5.31;100.00;97419.44;5071463;28;20713;-65
2022/01/06 01:10:46;;;;;;;95.90;5.63;;;;;;;5.31;100.00;97427.38;5075577;28;20610;-65
2022/01/06 01:13:14;;;;;;;61.23;4.37;;;;;;;5.35;100.00;97440.94;5076191;28;20622;-66
2022/01/06 01:15:46;;;;;;;91.57;5.03;;;;;;;5.38;100.00;97432.50;5068699;28;20979;-65
2022/01/06 01:18:17;;;;;;;58.63;3.70;;;;;;;5.37;100.00;97439.66;5074181;28;21442;-65
2022/01/06 01:20:45;;;;;;;56.43;3.47;;;;;;;5.28;100.00;97440.28;5065411;28;20640;-65
2022/01/06 01:23:12;;;;;;;61.20;3.83;;;;;;;5.30;100.00;97446.13;5073555;28;20618;-65
2022/01/06 01:25:39;;;;;;;60.43;3.73;;;;;;;5.26;100.00;97445.03;5068284;28;20618;-66
2022/01/06 01:28:05;;;;;;;59.87;4.20;;;;;;;5.40;100.00;97449.75;5076118;28;20671;-64
2022/01/06 01:30:40;;;;;;;76.97;4.83;;;;;;;5.35;100.00;97457.59;5070845;28;20629;-65
2022/01/06 01:33:14;;;;;;;80.13;5.30;;;;;;;5.47;100.00;97456.72;5075278;28;20645;-65
2022/01/06 01:35:41;;;;;;;46.70;3.10;;;;;;;5.38;100.00;97454.47;5072162;28;20618;-65
2022/01/06 01:38:09;;;;;;;32.33;2.57;;;;;;;5.42;100.00;97460.09;5074342;28;20638;-65
2022/01/06 01:40:36;;;;;;;48.20;3.60;;;;;;;5.57;100.00;97470.91;5075262;28;20602;-65
2022/01/06 01:43:03;;;;;;;45.47;2.60;;;;;;;5.37;100.00;97473.25;5079896;28;20611;-67
2022/01/06 01:45:33;;;;;;;67.97;4.13;;;;;;;5.53;100.00;97469.81;5079231;28;20649;-65
2022/01/06 01:48:04;;;;;;;86.53;5.70;;;;;;;5.29;100.00;97474.44;5079353;28;20639;-64
2022/01/06 01:50:31;;;;;;;74.67;4.53;;;;;;;5.36;100.00;97475.09;5072435;28;21265;-65
2022/01/06 01:52:58;;;;;;;66.03;4.63;;;;;;;5.43;100.00;97475.75;5080006;28;20614;-64
2022/01/06 01:55:29;;;;;;;83.63;5.83;;;;;;;5.39;100.00;97477.25;5075429;28;20652;-65
2022/01/06 01:57:57;;;;;;;83.63;4.73;;;;;;;5.35;100.00;97473.47;5082327;28;21089;-65
2022/01/06 02:00:26;;;;;;;81.00;4.73;;;;;;;5.37;100.00;97470.63;5078363;28;20598;-66
2022/01/06 02:02:53;;;;;;;62.37;3.93;;;;;;;5.24;100.00;97474.38;5079277;28;20610;-65
2022/01/06 02:05:25;;;;;;;64.07;3.90;;;;;;;5.23;100.00;97480.69;5080283;28;20617;-64
2022/01/06 02:07:53;;;;;;;90.47;5.97;;;;;;;5.44;100.00;97490.59;5071202;28;20668;-65
2022/01/06 02:10:20;;;;;;;112.90;6.67;;;;;;;5.31;100.00;97485.63;5071489;28;20614;-65
2022/01/06 02:12:51;;;;;;;77.70;4.63;;;;;;;5.26;100.00;97485.50;5080520;28;20613;-65
2022/01/06 02:15:17;;;;;;;70.80;4.63;;;;;;;5.51;100.00;97492.28;5082455;28;20712;-65
2022/01/06 02:17:44;;;;;;;58.10;4.13;;;;;;;5.29;100.00;97502.78;5077161;28;20644;-65
2022/01/06 02:20:14;;;;;;;72.43;4.57;;;;;;;5.32;100.00;97489.84;5078653;28;20652;-64
2022/01/06 02:22:41;;;;;;;67.90;4.23;;;;;;;5.24;100.00;97503.50;5071960;28;20613;-65
2022/01/06 02:25:14;;;;;;;52.50;3.40;;;;;;;5.50;100.00;97502.09;5077333;28;20602;-65
2022/01/06 02:27:42;;;;;;;58.60;4.07;;;;;;;5.58;100.00;97499.03;5064198;28;20614;-65
2022/01/06 02:30:10;;;;;;;63.93;4.17;;;;;;;5.65;100.00;97499.66;5076960;28;20614;-65
2022/01/06 02:32:37;;;;;;;71.40;4.30;;;;;;;5.70;100.00;97499.75;5077819;28;20638;-65
2022/01/06 02:35:05;;;;;;;62.63;4.00;;;;;;;5.45;100.00;97488.75;5079743;28;20755;-65
2022/01/06 02:37:33;;;;;;;69.63;5.27;;;;;;;5.47;100.00;97491.97;5078986;28;20613;-65
2022/01/06 02:40:01;;;;;;;64.33;4.70;;;;;;;5.36;100.00;97487.53;5081037;28;20659;-65
2022/01/06 02:42:29;;;;;;;75.37;4.70;;;;;;;5.51;100.00;97497.59;5071371;28;20614;-64
2022/01/06 02:44:56;;;;;;;61.23;4.40;;;;;;;5.58;100.00;97499.03;5078312;28;20737;-65
2022/01/06 02:47:23;;;;;;;45.40;3.57;;;;;;;5.54;100.00;97497.09;5078499;28;20665;-66
2022/01/06 02:49:49;;;;;;;35.63;2.43;;;;;;;5.67;100.00;97497.56;5076953;28;20598;-65
2022/01/06 02:52:16;;;;;;;44.23;3.40;;;;;;;5.57;100.00;97500.06;5078007;28;20622;-64
2022/01/06 02:54:44;;;;;;;69.03;4.83;;;;;;;5.62;100.00;97515.25;5071532;28;20617;-65
2022/01/06 02:57:11;;;;;;;59.90;4.30;;;;;;;5.46;100.00;97508.88;5078563;28;20994;-65
2022/01/06 02:59:37;;;;;;;110.47;6.37;;;;;;;5.54;100.00;97513.00;5073057;28;20645;-65
2022/01/06 03:02:04;;;;;;;41.93;2.80;;;;;;;5.64;100.00;97505.19;5070956;28;20606;-66
2022/01/06 03:04:31;;;;;;;66.37;4.30;;;;;;;5.33;100.00;97506.53;5080602;28;20602;-65
2022/01/06 03:06:59;;;;;;;42.73;3.83;;;;;;;5.28;100.00;97507.28;5079299;28;20636;-65
2022/01/06 03:09:36;;;;;;;68.07;4.30;;;;;;;5.40;100.00;97513.31;5073672;28;20618;-65
2022/01/06 03:12:07;;;;;;;57.93;3.73;;;;;;;5.30;100.00;97502.53;5081863;28;20616;-65
2022/01/06 03:14:34;;;;;;;92.47;5.90;;;;;;;5.45;100.00;97513.38;5078637;28;20733;-65
2022/01/06 03:17:00;;;;;;;111.60;6.77;;;;;;;5.55;100.00;97514.59;5069661;28;20993;-65
2022/01/06 03:19:27;;;;;;;53.90;4.50;;;;;;;5.51;100.00;97518.78;5080117;28;20668;-65
2022/01/06 03:21:54;;;;;;;61.20;3.83;;;;;;;5.45;100.00;97517.88;5080548;28;20597;-65
2022/01/06 03:24:20;;;;;;;50.03;4.17;;;;;;;5.49;100.00;97510.25;5074392;28;20599;-65
2022/01/06 03:26:47;;;;;;;80.77;5.90;;;;;;;5.58;100.00;97512.25;5081743;28;20636;-65
2022/01/06 03:29:15;;;;;;;80.57;5.60;;;;;;;5.36;100.00;97514.81;5081513;28;20604;-65
2022/01/06 03:31:42;;;;;;;81.97;5.40;;;;;;;5.27;100.00;97507.50;5070235;28;20615;-64
2022/01/06 03:34:08;;;;;;;56.77;3.90;;;;;;;5.23;100.00;97501.09;5078217;28;20607;-64
2022/01/06 03:36:35;;;;;;;45.83;3.50;;;;;;;5.18;100.00;97496.50;5080843;28;20613;-64
2022/01/06 03:39:02;;;;;;;52.50;4.23;;;;;;;5.23;100.00;97501.09;5081489;28;20649;-65
2022/01/06 03:41:29;;;;;;;54.33;4.23;;;;;;;5.24;100.00;97507.97;5079261;28;20685;-65
2022/01/06 03:43:55;;;;;;;103.93;6.93;;;;;;;5.38;100.00;97519.88;5077588;28;20606;-66
2022/01/06 03:46:23;;;;;;;64.87;4.40;;;;;;;5.49;100.00;97510.25;5078845;28;20641;-65
2022/01/06 03:48:50;;;;;;;66.53;4.37;;;;;;;5.30;100.00;97521.06;5081417;28;20640;-65
2022/01/06 03:51:18;;;;;;;57.03;3.87;;;;;;;5.15;100.00;97510.22;5080789;28;20615;-65
2022/01/06 03:53:45;;;;;;;57.00;4.17;;;;;;;5.13;100.00;97516.78;5071831;28;20607;-64
2022/01/06 03:56:11;;;;;;;79.63;5.53;;;;;;;5.25;100.00;97513.06;5077546;28;20588;-65
2022/01/06 03:58:40;;;;;;;75.07;4.90;;;;;;;5.14;100.00;97513.09;5080794;28;20620;-65
2022/01/06 04:01:07;;;;;;;60.37;4.10;;;;;;;5.19;100.00;97506.06;5080915;28;20695;-64
2022/01/06 04:03:34;;;;;;;85.27;6.07;;;;;;;5.32;100.00;97513.69;5067337;28;21206;-65
2022/01/06 04:06:01;;;;;;;86.87;5.60;;;;;;;5.27;100.00;97518.91;5063094;28;20614;-65
2022/01/06 04:08:28;;;;;;;75.40;5.07;;;;;;;5.21;100.00;97519.84;5068604;28;20606;-65
2022/01/06 04:10:54;;;;;;;140.20;8.90;;;;;;;5.29;100.00;97522.09;5074293;28;20597;-64
2022/01/06 04:13:21;;;;;;;47.27;3.67;;;;;;;5.42;100.00;97534.25;5081988;28;20628;-64
2022/01/06 04:15:48;;;;;;;78.13;4.80;;;;;;;5.41;100.00;97522.88;5077355;28;20705;-65
2022/01/06 04:18:15;;;;;;;71.00;4.37;;;;;;;5.40;100.00;97528.38;5077380;28;20636;-65
2022/01/06 04:20:43;;;;;;;106.23;6.37;;;;;;;5.50;100.00;97533.88;5080851;28;21489;-64
2022/01/06 04:23:09;;;;;;;32.70;2.50;;;;;;;5.49;100.00;97542.03;5075930;28;20615;-64
2022/01/06 04:25:36;;;;;;;53.20;3.20;;;;;;;5.38;100.00;97543.72;5077203;28;20602;-65
2022/01/06 04:28:02;;;;;;;91.73;6.03;;;;;;;5.37;100.00;97556.16;5077179;28;21451;-65
2022/01/06 04:30:29;;;;;;;88.47;5.57;;;;;;;5.44;100.00;97546.22;5079123;28;20598;-66
2022/01/06 04:32:56;;;;;;;45.00;3.57;;;;;;;5.44;100.00;97554.16;5080758;28;20598;-64
2022/01/06 04:35:22;;;;;;;74.23;4.60;;;;;;;5.49;100.00;97549.97;5079293;28;20635;-65
2022/01/06 04:37:50;;;;;;;74.87;4.33;;;;;;;5.55;100.00;97552.47;5077127;28;20602;-64
2022/01/06 04:40:17;;;;;;;42.77;3.50;;;;;;;5.54;100.00;97565.97;5077304;28;20641;-65
2022/01/06 04:42:43;;;;;;;54.63;3.63;;;;;;;5.56;100.00;97567.34;5080596;28;20597;-65
2022/01/06 04:45:10;;;;;;;95.10;6.13;;;;;;;5.60;100.00;97573.75;5080261;28;20628;-64
2022/01/06 04:47:37;;;;;;;80.83;5.63;;;;;;;5.58;100.00;97580.31;5077244;28;20590;-64
2022/01/06 04:50:04;;;;;;;56.93;3.93;;;;;;;5.66;100.00;97579.94;5076981;28;20603;-65
2022/01/06 04:52:31;;;;;;;50.23;4.23;;;;;;;5.33;100.00;97573.53;5078997;28;21178;-64
2022/01/06 04:54:59;;;;;;;56.60;4.20;;;;;;;5.49;100.00;97592.34;5074944;28;20623;-64
2022/01/06 04:57:26;;;;;;;59.10;4.90;;;;;;;5.47;100.00;97586.50;5078743;28;20612;-64
2022/01/06 04:59:52;;;;;;;96.37;6.00;;;;;;;5.57;100.00;97586.69;5076788;28;20703;-65
2022/01/06 05:02:19;;;;;;;77.93;5.10;;;;;;;5.36;100.00;97580.19;5077357;28;20622;-65
2022/01/06 05:04:46;;;;;;;72.43;5.40;;;;;;;5.45;100.00;97584.88;5080418;28;20605;-64
2022/01/06 05:07:12;;;;;;;55.80;4.53;;;;;;;5.48;100.00;97590.75;5084207;28;20662;-65
2022/01/06 05:09:39;;;;;;;51.20;3.70;;;;;;;5.61;100.00;97596.53;5072490;28;20594;-65
2022/01/06 05:12:07;;;;;;;74.23;4.97;;;;;;;5.69;100.00;97595.38;5080628;28;20962;-65
2022/01/06 05:14:34;;;;;;;44.83;3.83;;;;;;;5.73;100.00;97602.59;5083421;28;20597;-64
2022/01/06 05:17:01;;;;;;;37.40;2.83;;;;;;;5.78;100.00;97600.03;5084128;28;20613;-64
2022/01/06 05:19:28;;;;;;;95.17;6.03;;;;;;;5.53;100.00;97596.94;5081870;28;20660;-64
2022/01/06 05:21:55;;;;;;;56.00;3.93;;;;;;;5.60;100.00;97596.81;5080557;28;20609;-64
2022/01/06 05:24:23;;;;;;;55.47;3.77;;;;;;;5.44;100.00;97601.84;5075559;28;20602;-65
2022/01/06 05:26:50;;;;;;;95.03;6.03;;;;;;;5.61;100.00;97604.50;5083822;28;20621;-64
2022/01/06 05:29:18;;;;;;;56.33;4.63;;;;;;;5.48;100.00;97601.34;5079408;28;20610;-65
2022/01/06 05:31:45;;;;;;;56.23;3.70;;;;;;;5.67;100.00;97619.44;5083726;28;20624;-65
2022/01/06 05:34:11;;;;;;;50.07;3.20;;;;;;;5.60;100.00;97618.00;5083619;28;20594;-64
2022/01/06 05:36:38;;;;;;;70.37;4.83;;;;;;;5.68;100.00;97614.94;5080452;28;21348;-65
2022/01/06 05:39:05;;;;;;;68.17;4.43;;;;;;;5.56;100.00;97622.16;5080117;28;20583;-66
2022/01/06 05:41:32;;;;;;;53.40;4.33;;;;;;;5.62;100.00;97610.59;5082475;28;20602;-65
2022/01/06 05:44:00;;;;;;;59.70;4.03;;;;;;;5.51;100.00;97619.41;5083343;28;20617;-66
2022/01/06 05:46:28;;;;;;;74.03;5.87;;;;;;;5.33;100.00;97615.91;5081642;28;20693;-65
2022/01/06 05:48:54;;;;;;;59.70;4.63;;;;;;;5.29;100.00;97622.69;5079979;28;20618;-65
2022/01/06 05:51:21;;;;;;;57.93;5.23;;;;;;;5.41;100.00;97638.56;5080703;28;20610;-65
2022/01/06 05:53:49;;;;;;;66.97;4.30;;;;;;;5.43;100.00;97637.28;5079790;28;20599;-65
2022/01/06 05:56:16;;;;;;;80.83;5.47;;;;;;;5.47;100.00;97632.31;5079919;28;20686;-65
2022/01/06 05:58:43;;;;;;;81.40;5.63;;;;;;;5.59;100.00;97641.03;5083330;28;20598;-65
2022/01/06 06:01:09;;;;;;;77.97;4.90;;;;;;;5.59;100.00;97642.88;5083114;28;20645;-65
2022/01/06 06:03:37;;;;;;;48.53;3.90;;;;;;;5.67;100.00;97651.22;5080030;28;20629;-65
2022/01/06 06:06:04;;;;;;;59.37;4.40;;;;;;;5.74;100.00;97656.38;5079264;28;20594;-66
2022/01/06 06:08:31;;;;;;;97.77;6.20;;;;;;;5.75;100.00;97655.34;5081697;28;20602;-65
2022/01/06 06:10:57;;;;;;;97.67;6.73;;;;;;;5.69;100.00;97658.94;5082915;28;21258;-65
2022/01/06 06:13:24;;;;;;;97.07;6.77;;;;;;;5.62;100.00;97660.94;5081337;28;20885;-65
2022/01/06 06:15:50;;;;;;;118.83;7.80;;;;;;;5.73;100.00;97662.72;5079223;28;20598;-65
2022/01/06 06:18:17;;;;;;;70.00;5.20;;;;;;;5.77;100.00;97664.66;5079449;28;20678;-65
2022/01/06 06:20:45;;;;;;;91.50;6.93;;;;;;;5.82;100.00;97671.88;5082669;28;20693;-65
2022/01/06 06:23:12;;;;;;;85.07;5.67;;;;;;;5.83;100.00;97671.66;5077215;28;20629;-65
2022/01/06 06:25:38;;;;;;;88.77;6.67;;;;;;;5.79;100.00;97678.47;5079164;28;20633;-65
2022/01/06 06:28:05;;;;;;;95.30;6.37;;;;;;;5.79;100.00;97680.31;5079237;28;20610;-65
2022/01/06 06:30:32;;;;;;;124.17;8.13;;;;;;;5.86;100.00;97683.66;5081487;28;20598;-65
2022/01/06 06:33:00;;;;;;;98.57;6.43;;;;;;;5.80;100.00;97687.22;5082573;28;20632;-64
2022/01/06 06:35:26;;;;;;;76.33;5.63;;;;;;;5.79;100.00;97685.59;5080728;28;20606;-64
2022/01/06 06:37:54;;;;;;;46.80;3.93;;;;;;;5.69;100.00;97683.59;5078665;28;20636;-65
2022/01/06 06:40:22;;;;;;;82.43;6.27;;;;;;;5.75;100.00;97689.78;5079720;28;20638;-64
2022/01/06 06:42:49;;;;;;;76.73;5.40;;;;;;;5.73;100.00;97694.50;5082493;28;20621;-65
2022/01/06 06:45:15;;;;;;;83.33;5.97;;;;;;;5.74;100.00;97698.78;5081710;28;20621;-66
2022/01/06 06:47:42;;;;;;;51.37;4.20;;;;;;;5.63;100.00;97694.34;5078574;28;20677;-65
2022/01/06 06:50:11;;;;;;;87.27;6.07;;;;;;;5.59;100.00;97701.13;5078515;28;20599;-65
2022/01/06 06:52:38;;;;;;;72.30;5.27;;;;;;;5.60;100.00;97706.19;5080932;28;20613;-65
2022/01/06 06:55:07;;;;;;;96.53;6.07;;;;;;;5.54;100.00;97709.00;5077252;28;20606;-65
2022/01/06 06:57:33;;;;;;;87.50;5.77;;;;;;;5.59;100.00;97717.03;5079300;28;20605;-66
2022/01/06 07:00:03;;;;;;;55.63;4.43;;;;;;;5.48;100.00;97717.88;5078337;28;20691;-64
2022/01/06 07:02:30;;;;;;;71.53;5.50;;;;;;;5.52;100.00;97721.66;5080589;28;20637;-65
2022/01/06 07:04:56;;;;;;;95.60;6.00;;;;;;;5.43;100.00;97714.09;5081830;28;20582;-65
2022/01/06 07:07:23;;;;;;;59.33;5.17;;;;;;;5.38;100.00;97731.72;5080418;28;20609;-64
2022/01/06 07:09:50;;;;;;;103.13;7.60;;;;;;;5.42;100.00;97735.50;5078211;28;20618;-64
2022/01/06 07:12:18;;;;;;;72.97;4.83;;;;;;;5.39;100.00;97736.78;5078414;28;20615;-65
2022/01/06 07:14:44;;;;;;;113.77;7.03;;;;;;;5.42;100.00;97736.31;5081694;28;20613;-64
2022/01/06 07:17:11;;;;;;;53.43;3.80;;;;;;;5.45;100.00;97741.13;5081696;28;20627;-64
2022/01/06 07:19:38;;;;;;;73.87;4.60;;;;;;;5.47;100.00;97742.75;5078218;28;20602;-65
2022/01/06 07:22:05;;;;;;;84.07;6.03;;;;;;;5.51;100.00;97746.56;5078035;28;20609;-66
2022/01/06 07:24:32;;;;;;;75.20;5.30;;;;;;;5.57;100.00;97745.59;5074593;28;20611;-65
2022/01/06 07:27:00;;;;;;;90.20;5.50;;;;;;;5.64;100.00;97754.22;5081587;28;20601;-65
2022/01/06 07:29:28;;;;;;;90.30;6.97;;;;;;;5.56;100.00;97754.59;5079203;28;20640;-65
2022/01/06 07:31:54;;;;;;;61.70;5.10;;;;;;;5.53;100.00;97755.88;5077931;28;20602;-65
2022/01/06 07:34:22;;;;;;;73.47;4.80;;;;;;;5.57;100.00;97756.22;5078621;28;20628;-65
2022/01/06 07:36:49;;;;;;;45.27;3.40;;;;;;;5.68;100.00;97763.31;5081171;28;20601;-66
2022/01/06 07:39:15;;;;;;;71.73;4.53;;;;;;;5.56;100.00;97765.19;5081003;28;20609;-65
2022/01/06 07:41:42;;;;;;;48.33;3.97;;;;;;;5.50;100.00;97771.41;5077611;28;20634;-65
2022/01/06 07:44:08;;;;;;;49.70;4.00;;;;;;;5.48;100.00;97773.50;5077342;28;20603;-65
2022/01/06 07:46:37;;;;;;;92.87;5.60;;;;;;;5.49;100.00;97760.00;5080401;28;20617;-66
2022/01/06 07:49:04;;;;;;;56.10;3.73;;;;;;;5.55;100.00;97776.81;5081125;28;20694;-64
2022/01/06 07:51:32;;;;;;;43.57;4.13;;;;;;;5.63;100.00;97774.59;5078766;28;20625;-65
2022/01/06 07:53:59;;;;;;;113.77;7.37;;;;;;;5.42;100.00;97770.72;5071663;28;20610;-64
2022/01/06 07:56:26;;;;;;;77.73;5.63;;;;;;;5.41;100.00;97778.91;5078928;28;20614;-66
2022/01/06 07:58:53;;;;;;;97.20;6.33;;;;;;;5.50;100.00;97784.66;5078974;28;20628;-65
2022/01/06 08:01:20;;;;;;;78.83;5.63;;;;;;;5.45;100.00;97774.75;5071466;28;20784;-64
2022/01/06 08:03:48;;;;;;;51.00;4.10;;;;;;;5.45;100.00;97780.84;5067319;28;21362;-64
2022/01/06 08:06:16;;;;;;;78.80;5.20;;;;;;;5.43;100.00;97784.78;5067646;28;20622;-65
2022/01/06 08:08:43;;;;;;;69.70;5.00;;;;;;;5.52;100.00;97788.69;5077212;28;20632;-66
2022/01/06 08:11:11;;;;;;;68.83;4.37;;;;;;;5.50;100.00;97790.75;5077432;28;20599;-65
2022/01/06 08:13:38;;;;;;;82.60;5.07;;;;;;;5.66;100.00;97792.69;5080387;28;20639;-65
2022/01/06 08:16:05;;;;;;;65.40;4.37;;;;;;;5.70;100.00;97798.31;5080845;28;20617;-65
2022/01/06 08:18:32;;;;;;;67.93;4.97;;;;;;;5.71;100.00;97795.44;5078326;28;20593;-65
2022/01/06 08:21:00;;;;;;;75.83;4.60;;;;;;;5.80;100.00;97793.22;5077143;28;20704;-65
2022/01/06 08:23:27;;;;;;;42.23;3.70;;;;;;;5.80;100.00;97801.16;5077770;28;20602;-64
2022/01/06 08:25:53;;;;;;;61.63;4.60;;;;;;;5.82;100.00;97813.13;5076934;28;20626;-64
2022/01/06 08:28:20;;;;;;;37.83;2.80;;;;;;;5.73;100.00;97811.91;5077537;28;20607;-66
2022/01/06 08:30:47;;;;;;;74.50;4.60;;;;;;;5.87;100.00;97812.47;5080552;28;20612;-64
2022/01/06 08:33:15;;;;;;;47.43;3.60;;;;;;;5.95;100.00;97810.25;5080358;28;20623;-65
2022/01/06 08:35:42;;;;;;;76.53;5.17;;;;;;;5.80;100.00;97809.13;5068976;28;20721;-66
2022/01/06 08:38:10;;;;;;;35.47;3.37;;;;;;;5.64;100.00;97820.44;5077030;28;20610;-66
2022/01/06 08:40:38;;;;;;;80.90;6.13;;;;;;;5.81;100.00;97824.78;5081139;28;20645;-65
2022/01/06 08:43:05;;;;;;;66.93;4.30;;;;;;;5.75;100.00;97823.09;5084824;28;20602;-65
2022/01/06 08:45:33;;;;;;;104.20;6.60;;;;;;;5.65;100.00;97830.00;5081688;28;20621;-66
2022/01/06 08:48:01;;;;;;;52.40;4.30;;;;;;;5.60;100.00;97830.69;5080970;28;20599;-65
2022/01/06 08:50:28;;;;;;;77.93;5.03;;;;;;;5.63;100.00;97829.44;5082522;28;20602;-66
2022/01/06 08:52:55;;;;;;;57.93;4.13;;;;;;;5.70;100.00;97835.41;5081386;28;20640;-64
2022/01/06 08:55:25;;;;;;;80.63;5.77;;;;;;;5.81;100.00;97829.28;5080646;28;20586;-65
2022/01/06 08:57:52;;;;;;;79.43;4.93;;;;;;;5.80;100.00;97825.00;5080761;28;21273;-64
2022/01/06 09:00:19;;;;;;;83.20;5.80;;;;;;;5.88;100.00;97830.00;5080946;28;20602;-64
2022/01/06 09:02:46;;;;;;;88.60;5.67;;;;;;;5.94;100.00;97842.31;5084125;28;20623;-66
2022/01/06 09:05:14;;;;;;;78.10;5.37;;;;;;;5.74;100.00;97841.84;5084092;28;20662;-66
2022/01/06 09:07:41;;;;;;;89.73;5.87;;;;;;;5.83;100.00;97840.44;5072313;28;20689;-64
2022/01/06 09:10:08;;;;;;;62.40;4.63;;;;;;;5.83;100.00;97841.25;5080371;28;20594;-65
2022/01/06 09:12:37;;;;;;;65.40;5.20;;;;;;;5.75;100.00;97864.66;5083337;28;20612;-65
2022/01/06 09:15:04;;;;;;;117.77;8.67;;;;;;;5.73;100.00;97856.13;5083963;28;20620;-66
2022/01/06 09:17:35;;;;;;;52.77;4.13;;;;;;;5.54;100.00;97852.81;5081465;28;20609;-66
2022/01/06 09:20:01;;;;;;;65.47;4.90;;;;;;;5.64;100.00;97857.53;5080502;28;20606;-65
2022/01/06 09:22:28;;;;;;;96.47;6.63;;;;;;;5.59;100.00;97860.06;5081702;28;20699;-65
2022/01/06 09:24:55;;;;;;;89.60;6.47;;;;;;;5.60;100.00;97869.66;5077963;28;20614;-65
2022/01/06 09:27:23;;;;;;;51.93;5.67;;;;;;;5.78;100.00;97864.19;5082595;28;20679;-65
2022/01/06 09:29:51;;;;;;;106.13;7.67;;;;;;;5.83;100.00;97877.53;5080066;28;20629;-65
2022/01/06 09:32:18;;;;;;;66.47;4.50;;;;;;;6.00;100.00;97883.78;5080507;28;20633;-66
2022/01/06 09:34:45;;;;;;;117.07;7.13;;;;;;;6.00;100.00;97875.81;5083501;28;20605;-65
2022/01/06 09:37:11;;;;;;;73.27;5.60;;;;;;;6.22;100.00;97874.13;5083497;28;20593;-65
2022/01/06 09:39:38;;;;;;;59.23;5.00;;;;;;;6.12;100.00;97873.94;5080270;28;20594;-64
2022/01/06 09:42:05;;;;;;;47.03;3.37;;;;;;;5.97;100.00;97889.56;5080001;28;20650;-65
2022/01/06 09:44:32;;;;;;;68.80;6.00;;;;;;;6.00;100.00;97881.13;5081805;28;20638;-66
2022/01/06 09:47:01;;;;;;;101.17;7.00;;;;;;;6.11;100.00;97885.59;5083273;28;20609;-64
2022/01/06 09:49:28;;;;;;;54.80;4.60;;;;;;;5.94;100.00;97890.03;5081387;28;20697;-65
2022/01/06 09:51:55;;;;;;;97.50;6.03;;;;;;;6.00;100.00;97894.38;5079239;28;20606;-65
2022/01/06 09:54:22;;;;;;;101.37;5.90;;;;;;;5.90;100.00;97891.50;5074695;28;21197;-65
2022/01/06 09:56:48;;;;;;;103.27;6.23;;;;;;;5.87;100.00;97886.69;5082981;28;20609;-65
2022/01/06 09:59:15;;;;;;;55.30;4.97;;;;;;;5.77;100.00;97894.38;5083065;28;20635;-65
2022/01/06 10:01:42;;;;;;;52.20;4.10;;;;;;;5.75;100.00;97896.47;5079593;28;20633;-65
2022/01/06 10:04:19;;;;;;;65.87;4.50;;;;;;;5.62;100.00;97896.69;5079450;28;20602;-64
2022/01/06 10:06:57;;;;;;;89.93;6.03;;;;;;;5.73;100.00;97893.22;5072048;28;20655;-65
2022/01/06 10:09:24;;;;;;;97.43;6.20;;;;;;;5.64;100.00;97910.50;5080593;28;20598;-65
2022/01/06 10:11:56;;;;;;;73.50;5.07;;;;;;;5.72;100.00;97896.94;5082996;28;20601;-65
2022/01/06 10:14:31;;;;;;;73.17;5.33;;;;;;;5.84;100.00;97911.78;5081657;28;20696;-65
2022/01/06 10:16:59;;;;;;;96.53;6.30;;;;;;;6.05;100.00;97904.28;5079284;28;20636;-66
2022/01/06 10:19:27;;;;;;;87.63;6.93;;;;;;;6.23;100.00;97898.81;5080521;28;20601;-65
2022/01/06 10:21:57;;;;;;;162.47;10.00;;;;;;;6.09;100.00;97900.94;5082525;28;20966;-65
2022/01/06 10:24:26;;;;;;;67.13;4.60;;;;;;;6.38;100.00;97902.56;5075016;28;20620;-65
2022/01/06 10:26:56;;;;;;;96.60;8.07;;;;;;;6.91;100.00;97902.22;5082549;28;20585;-64
2022/01/06 10:29:24;;;;;;;75.03;15.03;;;;;;;11.65;100.00;97896.44;5081294;28;20605;-65
2022/01/06 10:31:51;;;;;;;1378.73;999.90;;;;;;;12.48;100.00;97897.56;5078862;28;20681;-65
2022/01/06 10:34:18;;;;;;;1470.93;999.90;;;;;;;13.17;100.00;97899.31;5079292;28;20712;-65
2022/01/06 10:36:48;;;;;;;1244.80;960.23;;;;;;;13.58;100.00;97894.44;5082462;28;20605;-64
2022/01/06 10:39:15;;;;;;;2266.67;999.90;;;;;;;13.84;100.00;97904.63;5082099;28;20602;-65
2022/01/06 10:41:41;;;;;;;2266.67;999.90;;;;;;;13.95;100.00;97899.97;5070655;28;20715;-65
2022/01/06 10:44:12;;;;;;;1782.13;999.90;;;;;;;14.22;100.00;97910.94;5077508;28;20591;-65
2022/01/06 10:46:41;;;;;;;1390.53;995.17;;;;;;;14.37;100.00;97902.72;5081848;28;20661;-65
2022/01/06 10:49:11;;;;;;;703.47;627.57;;;;;;;14.51;100.00;97902.84;5082123;28;21346;-64
2022/01/06 10:51:43;;;;;;;1269.23;999.90;;;;;;;14.59;100.00;97902.19;5078866;28;20599;-64
2022/01/06 10:54:17;;;;;;;1077.73;902.93;;;;;;;14.75;100.00;97902.78;5072572;28;20586;-64
2022/01/06 10:56:55;;;;;;;376.60;243.83;;;;;;;15.01;96.84;97901.31;5070629;28;20609;-64
2022/01/06 10:59:25;;;;;;;43.53;5.07;;;;;;;13.05;83.14;97910.38;5079397;28;20598;-64
2022/01/06 11:01:51;;;;;;;72.33;7.00;;;;;;;10.64;100.00;97904.41;5081725;28;20657;-65
2022/01/06 11:04:18;;;;;;;76.17;10.67;;;;;;;9.86;100.00;97929.38;5080238;28;20668;-65
2022/01/06 11:06:45;;;;;;;182.93;83.20;;;;;;;9.25;100.00;97920.16;5078245;28;20594;-65
2022/01/06 11:09:12;;;;;;;94.97;24.10;;;;;;;8.94;100.00;97924.41;5078085;28;20598;-64
2022/01/06 11:14:24;;;;;;;121.07;46.57;;;;;;;8.54;100.00;97927.44;5079772;28;20721;-65
2022/01/06 11:16:51;;;;;;;57.93;19.57;;;;;;;8.36;100.00;97933.88;5078077;28;20621;-65
2022/01/06 11:19:21;;;;;;;70.57;9.20;;;;;;;8.03;100.00;97933.94;5078484;28;20629;-65
2022/01/06 11:21:50;;;;;;;55.73;13.90;;;;;;;7.71;100.00;97939.06;5080346;28;20644;-65
2022/01/06 11:24:19;;;;;;;115.13;34.07;;;;;;;7.55;100.00;97946.00;5073971;28;20598;-65
2022/01/06 11:26:58;;;;;;;96.33;18.73;;;;;;;7.73;100.00;97936.19;5081592;28;21549;-64
2022/01/06 11:29:27;;;;;;;70.67;15.17;;;;;;;7.14;100.00;97957.03;5080012;28;20609;-65